createdAt,value
2023-04-16T00:00:14.266Z,0.00
2023-04-16T00:01:14.554Z,0.00
2023-04-16T00:02:14.931Z,0.00
2023-04-16T00:03:15.323Z,0.00
2023-04-16T00:04:15.547Z,0.00
2023-04-16T00:05:15.699Z,0.00
2023-04-16T00:06:15.980Z,0.00
2023-04-16T00:07:16.258Z,0.00
2023-04-16T00:08:16.542Z,0.00
2023-04-16T00:09:16.848Z,0.00
2023-04-16T00:10:17.173Z,0.00
2023-04-16T00:11:17.465Z,0.00
2023-04-16T00:12:17.776Z,0.00
2023-04-16T00:13:18.072Z,0.00
2023-04-16T00:14:18.373Z,0.00
2023-04-16T00:15:18.663Z,0.00
2023-04-16T00:16:18.969Z,0.00
2023-04-16T00:17:19.263Z,0.00
2023-04-16T00:18:19.545Z,0.00
2023-04-16T00:19:19.811Z,0.00
2023-04-16T00:20:20.128Z,0.00
2023-04-16T00:21:20.450Z,0.00
2023-04-16T00:22:20.725Z,0.00
2023-04-16T00:23:20.999Z,0.00
2023-04-16T00:24:21.326Z,0.00
2023-04-16T00:25:21.620Z,0.00
2023-04-16T00:26:21.894Z,0.00
2023-04-16T00:27:22.170Z,0.00
2023-04-16T00:28:22.446Z,0.00
2023-04-16T00:29:22.722Z,0.00
2023-04-16T00:30:23.052Z,0.00
2023-04-16T00:31:23.379Z,0.00
2023-04-16T00:32:23.691Z,0.00
2023-04-16T00:33:23.975Z,0.00
2023-04-16T00:34:24.266Z,0.00
2023-04-16T00:35:24.586Z,0.00
2023-04-16T00:36:24.884Z,0.00
2023-04-16T00:37:25.156Z,0.00
2023-04-16T00:38:25.471Z,0.00
2023-04-16T00:39:25.789Z,0.00
2023-04-16T00:40:26.070Z,0.00
2023-04-16T00:41:26.378Z,0.00
2023-04-16T00:42:26.683Z,0.00
2023-04-16T00:43:27.023Z,0.00
2023-04-16T00:44:27.310Z,0.00
2023-04-16T00:45:27.634Z,0.00
2023-04-16T00:46:27.997Z,0.00
2023-04-16T00:47:28.380Z,0.00
2023-04-16T00:48:28.620Z,0.00
2023-04-16T00:49:28.765Z,0.00
2023-04-16T00:50:29.044Z,0.00
2023-04-16T00:51:29.358Z,0.00
2023-04-16T00:52:29.668Z,0.00
2023-04-16T00:53:29.969Z,0.00
2023-04-16T00:54:30.225Z,0.00
2023-04-16T00:55:30.511Z,0.00
2023-04-16T00:56:30.824Z,0.00
2023-04-16T00:57:31.099Z,0.00
2023-04-16T00:58:31.416Z,0.00
2023-04-16T00:59:31.694Z,0.00
2023-04-16T01:00:31.994Z,0.00
2023-04-16T01:01:32.329Z,0.00
2023-04-16T01:02:32.625Z,0.00
2023-04-16T01:03:33.033Z,0.00
2023-04-16T01:04:33.216Z,0.00
2023-04-16T01:05:33.488Z,0.00
2023-04-16T01:06:33.796Z,0.00
2023-04-16T01:07:34.108Z,0.00
2023-04-16T01:08:34.431Z,0.00
2023-04-16T01:09:34.708Z,0.00
2023-04-16T01:10:35.012Z,0.00
2023-04-16T01:11:35.325Z,0.00
2023-04-16T01:12:35.585Z,0.00
2023-04-16T01:13:35.906Z,0.00
2023-04-16T01:14:36.228Z,0.00
2023-04-16T01:15:36.545Z,0.00
2023-04-16T01:16:36.801Z,0.00
2023-04-16T01:17:37.118Z,0.00
2023-04-16T01:18:37.421Z,0.00
2023-04-16T01:19:37.714Z,0.00
2023-04-16T01:20:37.974Z,0.00
2023-04-16T01:21:38.274Z,0.00
2023-04-16T01:22:38.576Z,0.00
2023-04-16T01:23:38.852Z,0.00
2023-04-16T01:24:39.176Z,0.00
2023-04-16T01:25:39.446Z,0.00
2023-04-16T01:26:39.746Z,0.00
2023-04-16T01:27:40.017Z,0.00
2023-04-16T01:28:40.305Z,0.00
2023-04-16T01:29:40.620Z,0.00
2023-04-16T01:30:40.894Z,0.00
2023-04-16T01:31:41.264Z,0.00
2023-04-16T01:32:41.556Z,0.00
2023-04-16T01:33:41.825Z,0.00
2023-04-16T01:34:42.114Z,0.00
2023-04-16T01:35:42.379Z,0.00
2023-04-16T01:36:42.743Z,0.00
2023-04-16T01:37:42.992Z,0.00
2023-04-16T01:38:43.283Z,0.00
2023-04-16T01:39:43.575Z,0.00
2023-04-16T01:40:43.874Z,0.00
2023-04-16T01:41:44.144Z,0.00
2023-04-16T01:42:44.458Z,0.00
2023-04-16T01:43:44.760Z,0.00
2023-04-16T01:44:45.037Z,0.00
2023-04-16T01:45:45.328Z,0.00
2023-04-16T01:46:45.658Z,0.00
2023-04-16T01:47:45.987Z,0.00
2023-04-16T01:48:46.248Z,0.00
2023-04-16T01:49:46.560Z,0.00
2023-04-16T01:50:46.914Z,0.00
2023-04-16T01:51:47.164Z,0.00
2023-04-16T01:52:47.436Z,0.00
2023-04-16T01:53:47.726Z,0.00
2023-04-16T01:54:48.006Z,0.00
2023-04-16T01:55:48.316Z,0.00
2023-04-16T01:56:48.610Z,0.00
2023-04-16T01:57:48.929Z,0.00
2023-04-16T01:58:49.248Z,0.00
2023-04-16T01:59:49.513Z,0.00
2023-04-16T02:00:49.870Z,0.00
2023-04-16T02:01:50.156Z,0.00
2023-04-16T02:02:50.560Z,0.00
2023-04-16T02:03:50.834Z,0.00
2023-04-16T02:04:51.021Z,0.00
2023-04-16T02:05:51.322Z,0.00
2023-04-16T02:06:51.609Z,0.00
2023-04-16T02:07:51.903Z,0.00
2023-04-16T02:08:52.176Z,0.00
2023-04-16T02:09:52.486Z,0.00
2023-04-16T02:10:52.783Z,0.00
2023-04-16T02:11:53.119Z,0.00
2023-04-16T02:12:53.404Z,0.00
2023-04-16T02:13:53.717Z,0.00
2023-04-16T02:14:54.028Z,0.00
2023-04-16T02:15:54.313Z,0.00
2023-04-16T02:16:54.630Z,0.00
2023-04-16T02:17:54.897Z,0.00
2023-04-16T02:18:55.171Z,0.00
2023-04-16T02:19:55.459Z,0.00
2023-04-16T02:20:55.764Z,0.00
2023-04-16T02:21:56.074Z,0.00
2023-04-16T02:22:56.384Z,0.00
2023-04-16T02:23:56.699Z,0.00
2023-04-16T02:24:57.015Z,0.00
2023-04-16T02:25:57.307Z,0.00
2023-04-16T02:26:57.609Z,0.00
2023-04-16T02:27:57.885Z,0.00
2023-04-16T02:28:58.182Z,0.00
2023-04-16T02:29:58.474Z,0.00
2023-04-16T02:30:58.792Z,0.00
2023-04-16T02:31:59.119Z,0.00
2023-04-16T02:32:59.479Z,0.00
2023-04-16T02:33:59.637Z,0.00
2023-04-16T02:34:59.912Z,0.00
2023-04-16T02:36:00.255Z,0.00
2023-04-16T02:37:00.534Z,0.00
2023-04-16T02:38:00.843Z,0.00
2023-04-16T02:39:01.109Z,0.00
2023-04-16T02:40:01.407Z,0.00
2023-04-16T02:41:01.731Z,0.00
2023-04-16T02:42:01.997Z,0.00
2023-04-16T02:43:02.318Z,0.00
2023-04-16T02:44:02.590Z,0.00
2023-04-16T02:45:02.902Z,0.00
2023-04-16T02:46:03.182Z,0.00
2023-04-16T02:47:03.479Z,0.00
2023-04-16T02:48:03.837Z,0.00
2023-04-16T02:49:04.134Z,0.00
2023-04-16T02:50:11.479Z,0.00
2023-04-16T02:51:04.723Z,0.00
2023-04-16T02:52:07.714Z,0.00
2023-04-16T02:53:06.996Z,0.00
2023-04-16T02:54:05.620Z,0.00
2023-04-16T02:55:05.860Z,0.00
2023-04-16T02:56:06.167Z,0.00
2023-04-16T02:57:06.446Z,0.00
2023-04-16T02:58:06.753Z,0.00
2023-04-16T02:59:07.283Z,0.00
2023-04-16T03:00:07.362Z,0.00
2023-04-16T03:01:07.672Z,0.00
2023-04-16T03:02:08.031Z,0.00
2023-04-16T03:03:08.244Z,0.00
2023-04-16T03:04:08.566Z,0.00
2023-04-16T03:05:08.824Z,0.00
2023-04-16T03:06:09.108Z,0.00
2023-04-16T03:07:09.386Z,0.00
2023-04-16T03:08:09.701Z,0.00
2023-04-16T03:09:10.238Z,0.00
2023-04-16T03:10:10.282Z,0.00
2023-04-16T03:11:10.580Z,0.00
2023-04-16T03:12:10.873Z,0.00
2023-04-16T03:13:11.167Z,0.00
2023-04-16T03:14:11.444Z,0.00
2023-04-16T03:15:11.731Z,0.00
2023-04-16T03:16:12.065Z,0.00
2023-04-16T03:17:12.294Z,0.00
2023-04-16T03:18:12.570Z,0.00
2023-04-16T03:19:12.916Z,0.00
2023-04-16T03:20:13.177Z,0.00
2023-04-16T03:21:13.494Z,0.00
2023-04-16T03:22:13.816Z,0.00
2023-04-16T03:23:14.093Z,0.00
2023-04-16T03:24:14.425Z,0.00
2023-04-16T03:25:14.709Z,0.00
2023-04-16T03:26:14.982Z,0.00
2023-04-16T03:27:15.253Z,0.00
2023-04-16T03:28:15.539Z,0.00
2023-04-16T03:29:15.855Z,0.00
2023-04-16T03:30:16.147Z,0.00
2023-04-16T03:31:16.493Z,0.00
2023-04-16T03:32:16.762Z,0.00
2023-04-16T03:33:17.036Z,0.00
2023-04-16T03:34:17.307Z,0.00
2023-04-16T03:35:17.620Z,0.00
2023-04-16T03:36:17.900Z,0.00
2023-04-16T03:37:18.220Z,0.00
2023-04-16T03:38:18.513Z,0.00
2023-04-16T03:39:18.802Z,0.00
2023-04-16T03:40:19.079Z,0.00
2023-04-16T03:41:19.365Z,0.00
2023-04-16T03:42:19.650Z,0.00
2023-04-16T03:43:19.966Z,0.00
2023-04-16T03:44:20.237Z,0.00
2023-04-16T03:45:20.540Z,0.00
2023-04-16T03:46:20.916Z,0.00
2023-04-16T03:47:21.181Z,0.00
2023-04-16T03:48:21.414Z,0.00
2023-04-16T03:49:21.680Z,0.00
2023-04-16T03:50:22.012Z,0.00
2023-04-16T03:51:22.243Z,0.00
2023-04-16T03:52:22.530Z,0.00
2023-04-16T03:53:22.825Z,0.00
2023-04-16T03:54:23.202Z,0.00
2023-04-16T03:55:23.461Z,0.00
2023-04-16T03:56:23.760Z,0.00
2023-04-16T03:57:24.040Z,0.00
2023-04-16T03:58:24.353Z,0.00
2023-04-16T03:59:24.681Z,0.00
2023-04-16T04:00:24.986Z,0.00
2023-04-16T04:01:25.309Z,0.00
2023-04-16T04:02:25.726Z,0.00
2023-04-16T04:03:26.045Z,0.00
2023-04-16T04:04:26.349Z,0.00
2023-04-16T04:05:26.495Z,0.00
2023-04-16T04:06:26.784Z,0.00
2023-04-16T04:07:27.078Z,0.00
2023-04-16T04:08:27.383Z,0.00
2023-04-16T04:09:27.700Z,0.00
2023-04-16T04:10:28.004Z,0.00
2023-04-16T04:11:28.279Z,0.00
2023-04-16T04:12:28.586Z,0.00
2023-04-16T04:13:28.854Z,0.00
2023-04-16T04:14:29.181Z,0.00
2023-04-16T04:15:29.434Z,0.00
2023-04-16T04:16:29.737Z,0.00
2023-04-16T04:17:30.148Z,0.00
2023-04-16T04:18:30.271Z,0.00
2023-04-16T04:19:30.584Z,0.00
2023-04-16T04:20:30.860Z,0.00
2023-04-16T04:21:31.182Z,0.00
2023-04-16T04:22:31.481Z,4.00
2023-04-16T04:23:31.780Z,4.00
2023-04-16T04:24:32.123Z,0.00
2023-04-16T04:25:32.386Z,0.00
2023-04-16T04:26:32.712Z,4.00
2023-04-16T04:27:33.002Z,4.00
2023-04-16T04:28:33.287Z,4.00
2023-04-16T04:29:33.606Z,4.00
2023-04-16T04:30:33.867Z,8.00
2023-04-16T04:31:34.216Z,8.00
2023-04-16T04:32:34.522Z,8.00
2023-04-16T04:33:34.780Z,8.00
2023-04-16T04:34:35.100Z,8.00
2023-04-16T04:35:35.386Z,8.00
2023-04-16T04:36:35.707Z,8.00
2023-04-16T04:37:36.011Z,12.00
2023-04-16T04:38:36.331Z,16.00
2023-04-16T04:39:36.624Z,12.00
2023-04-16T04:40:36.924Z,16.00
2023-04-16T04:41:37.225Z,16.00
2023-04-16T04:42:37.538Z,20.00
2023-04-16T04:43:37.847Z,20.00
2023-04-16T04:44:38.156Z,20.00
2023-04-16T04:45:38.518Z,28.00
2023-04-16T04:46:38.667Z,24.00
2023-04-16T04:47:39.032Z,28.00
2023-04-16T04:48:39.368Z,36.00
2023-04-16T04:49:39.654Z,40.00
2023-04-16T04:50:39.941Z,40.00
2023-04-16T04:51:40.228Z,48.00
2023-04-16T04:52:40.568Z,48.00
2023-04-16T04:53:40.893Z,52.00
2023-04-16T04:54:41.246Z,52.00
2023-04-16T04:55:41.564Z,56.00
2023-04-16T04:56:41.844Z,56.00
2023-04-16T04:57:42.209Z,64.00
2023-04-16T04:58:42.467Z,60.00
2023-04-16T04:59:42.768Z,64.00
2023-04-16T05:00:43.049Z,72.00
2023-04-16T05:01:43.339Z,76.00
2023-04-16T05:02:43.777Z,84.00
2023-04-16T05:03:44.092Z,84.00
2023-04-16T05:04:44.347Z,92.00
2023-04-16T05:05:44.614Z,104.00
2023-04-16T05:06:44.937Z,108.00
2023-04-16T05:07:45.246Z,108.00
2023-04-16T05:08:45.555Z,108.00
2023-04-16T05:09:45.907Z,104.00
2023-04-16T05:10:46.239Z,104.00
2023-04-16T05:11:46.585Z,112.00
2023-04-16T05:12:48.801Z,124.00
2023-04-16T05:13:47.112Z,124.00
2023-04-16T05:14:47.418Z,144.00
2023-04-16T05:15:47.763Z,148.00
2023-04-16T05:16:48.096Z,164.00
2023-04-16T05:17:48.413Z,148.00
2023-04-16T05:18:48.714Z,176.00
2023-04-16T05:19:49.023Z,184.00
2023-04-16T05:20:49.361Z,168.00
2023-04-16T05:21:49.673Z,152.00
2023-04-16T05:22:50.009Z,160.00
2023-04-16T05:23:50.347Z,168.00
2023-04-16T05:24:50.656Z,160.00
2023-04-16T05:25:51.022Z,152.00
2023-04-16T05:26:51.247Z,176.00
2023-04-16T05:27:51.440Z,172.00
2023-04-16T05:28:51.753Z,208.00
2023-04-16T05:29:52.102Z,192.00
2023-04-16T05:30:52.357Z,204.00
2023-04-16T05:31:52.646Z,220.00
2023-04-16T05:32:52.978Z,228.00
2023-04-16T05:33:53.260Z,232.00
2023-04-16T05:34:53.588Z,216.00
2023-04-16T05:35:53.915Z,220.00
2023-04-16T05:36:54.216Z,228.00
2023-04-16T05:37:54.561Z,248.00
2023-04-16T05:38:54.789Z,204.00
2023-04-16T05:39:55.009Z,208.00
2023-04-16T05:40:55.334Z,200.00
2023-04-16T05:41:55.648Z,232.00
2023-04-16T05:42:55.947Z,220.00
2023-04-16T05:43:56.270Z,220.00
2023-04-16T05:44:56.637Z,200.00
2023-04-16T05:45:56.893Z,216.00
2023-04-16T05:46:57.216Z,232.00
2023-04-16T05:47:57.534Z,220.00
2023-04-16T05:48:57.816Z,232.00
2023-04-16T05:49:58.166Z,212.00
2023-04-16T05:50:58.390Z,224.00
2023-04-16T05:51:58.604Z,236.00
2023-04-16T05:52:58.928Z,244.00
2023-04-16T05:53:59.212Z,252.00
2023-04-16T05:54:59.574Z,260.00
2023-04-16T05:55:59.766Z,256.00
2023-04-16T05:57:00.123Z,284.00
2023-04-16T05:58:00.290Z,288.00
2023-04-16T05:59:00.604Z,268.00
2023-04-16T06:00:00.956Z,296.00
2023-04-16T06:01:01.169Z,340.00
2023-04-16T06:02:01.583Z,348.00
2023-04-16T06:03:01.855Z,320.00
2023-04-16T06:04:02.197Z,344.00
2023-04-16T06:05:02.367Z,336.00
2023-04-16T06:06:02.750Z,380.00
2023-04-16T06:07:02.854Z,388.00
2023-04-16T06:08:03.159Z,356.00
2023-04-16T06:09:03.465Z,392.00
2023-04-16T06:10:03.839Z,380.00
2023-04-16T06:11:04.133Z,436.00
2023-04-16T06:12:04.502Z,392.00
2023-04-16T06:13:04.714Z,396.00
2023-04-16T06:14:04.957Z,380.00
2023-04-16T06:15:05.216Z,408.00
2023-04-16T06:16:05.475Z,424.00
2023-04-16T06:17:05.676Z,412.00
2023-04-16T06:18:05.923Z,424.00
2023-04-16T06:19:06.199Z,440.00
2023-04-16T06:20:06.505Z,480.00
2023-04-16T06:21:06.845Z,532.00
2023-04-16T06:22:07.207Z,520.00
2023-04-16T06:23:07.496Z,592.00
2023-04-16T06:24:07.816Z,612.00
2023-04-16T06:25:08.131Z,576.00
2023-04-16T06:26:08.462Z,648.00
2023-04-16T06:27:08.758Z,572.00
2023-04-16T06:28:09.061Z,616.00
2023-04-16T06:29:09.603Z,572.00
2023-04-16T06:30:09.720Z,536.00
2023-04-16T06:31:10.041Z,596.00
2023-04-16T06:32:10.245Z,600.00
2023-04-16T06:33:10.537Z,592.00
2023-04-16T06:34:10.882Z,612.00
2023-04-16T06:35:11.195Z,592.00
2023-04-16T06:36:11.670Z,464.00
2023-04-16T06:37:11.915Z,528.00
2023-04-16T06:38:12.078Z,548.00
2023-04-16T06:39:12.390Z,624.00
2023-04-16T06:40:12.719Z,592.00
2023-04-16T06:41:13.097Z,648.00
2023-04-16T06:42:13.332Z,692.00
2023-04-16T06:43:13.647Z,604.00
2023-04-16T06:44:13.858Z,604.00
2023-04-16T06:45:14.100Z,676.00
2023-04-16T06:46:14.397Z,600.00
2023-04-16T06:47:14.561Z,584.00
2023-04-16T06:48:14.857Z,616.00
2023-04-16T06:49:15.215Z,656.00
2023-04-16T06:50:15.445Z,664.00
2023-04-16T06:51:15.687Z,784.00
2023-04-16T06:52:15.864Z,712.00
2023-04-16T06:53:16.212Z,568.00
2023-04-16T06:54:16.516Z,668.00
2023-04-16T06:55:16.787Z,552.00
2023-04-16T06:56:17.079Z,560.00
2023-04-16T06:57:17.442Z,580.00
2023-04-16T06:58:17.717Z,548.00
2023-04-16T06:59:17.994Z,472.00
2023-04-16T07:00:18.331Z,472.00
2023-04-16T07:01:18.732Z,496.00
2023-04-16T07:02:19.053Z,500.00
2023-04-16T07:03:19.408Z,528.00
2023-04-16T07:04:19.567Z,516.00
2023-04-16T07:05:19.726Z,552.00
2023-04-16T07:06:20.033Z,536.00
2023-04-16T07:07:20.332Z,532.00
2023-04-16T07:08:20.632Z,548.00
2023-04-16T07:09:20.976Z,644.00
2023-04-16T07:10:21.220Z,632.00
2023-04-16T07:11:21.411Z,604.00
2023-04-16T07:12:22.754Z,640.00
2023-04-16T07:13:22.005Z,616.00
2023-04-16T07:14:22.212Z,708.00
2023-04-16T07:15:22.548Z,612.00
2023-04-16T07:16:22.927Z,544.00
2023-04-16T07:17:23.195Z,508.00
2023-04-16T07:18:23.502Z,588.00
2023-04-16T07:19:23.869Z,548.00
2023-04-16T07:20:24.184Z,644.00
2023-04-16T07:21:24.379Z,760.00
2023-04-16T07:22:24.739Z,624.00
2023-04-16T07:23:24.958Z,588.00
2023-04-16T07:24:25.195Z,576.00
2023-04-16T07:25:25.467Z,520.00
2023-04-16T07:26:25.613Z,568.00
2023-04-16T07:27:25.939Z,548.00
2023-04-16T07:28:26.269Z,540.00
2023-04-16T07:29:26.607Z,556.00
2023-04-16T07:30:26.976Z,584.00
2023-04-16T07:31:27.257Z,620.00
2023-04-16T07:32:27.592Z,596.00
2023-04-16T07:33:27.907Z,564.00
2023-04-16T07:34:28.232Z,580.00
2023-04-16T07:35:28.596Z,516.00
2023-04-16T07:36:28.819Z,540.00
2023-04-16T07:37:29.126Z,532.00
2023-04-16T07:38:29.473Z,528.00
2023-04-16T07:39:29.804Z,560.00
2023-04-16T07:40:30.066Z,528.00
2023-04-16T07:41:30.382Z,564.00
2023-04-16T07:42:30.602Z,592.00
2023-04-16T07:43:30.912Z,604.00
2023-04-16T07:44:31.246Z,604.00
2023-04-16T07:45:31.565Z,664.00
2023-04-16T07:46:45.464Z,744.00
2023-04-16T07:47:33.248Z,708.00
2023-04-16T07:48:32.532Z,688.00
2023-04-16T07:49:32.892Z,684.00
2023-04-16T07:50:33.074Z,656.00
2023-04-16T07:51:33.418Z,660.00
2023-04-16T07:52:33.599Z,708.00
2023-04-16T07:53:34.000Z,712.00
2023-04-16T07:54:34.258Z,700.00
2023-04-16T07:55:34.621Z,716.00
2023-04-16T07:56:34.838Z,708.00
2023-04-16T07:57:35.181Z,724.00
2023-04-16T07:58:35.427Z,692.00
2023-04-16T07:59:35.638Z,696.00
2023-04-16T08:00:35.943Z,692.00
2023-04-16T08:01:36.292Z,688.00
2023-04-16T08:02:36.689Z,716.00
2023-04-16T08:03:36.961Z,764.00
2023-04-16T08:04:37.267Z,772.00
2023-04-16T08:05:37.432Z,780.00
2023-04-16T08:06:37.715Z,816.00
2023-04-16T08:07:38.048Z,832.00
2023-04-16T08:08:38.391Z,840.00
2023-04-16T08:09:38.653Z,852.00
2023-04-16T08:10:38.848Z,852.00
2023-04-16T08:11:39.167Z,936.00
2023-04-16T08:12:39.519Z,964.00
2023-04-16T08:13:39.856Z,1024.00
2023-04-16T08:14:40.077Z,988.00
2023-04-16T08:15:40.463Z,1000.00
2023-04-16T08:16:40.685Z,1068.00
2023-04-16T08:17:40.980Z,1140.00
2023-04-16T08:18:41.162Z,1188.00
2023-04-16T08:19:41.444Z,1188.00
2023-04-16T08:20:41.629Z,1176.00
2023-04-16T08:21:41.871Z,1260.00
2023-04-16T08:22:42.125Z,1280.00
2023-04-16T08:23:42.358Z,1232.00
2023-04-16T08:24:42.556Z,1200.00
2023-04-16T08:25:42.898Z,1184.00
2023-04-16T08:26:43.220Z,1128.00
2023-04-16T08:27:43.567Z,1080.00
2023-04-16T08:28:43.876Z,1068.00
2023-04-16T08:29:44.198Z,988.00
2023-04-16T08:30:44.584Z,1044.00
2023-04-16T08:31:44.839Z,1104.00
2023-04-16T08:32:46.410Z,1172.00
2023-04-16T08:33:45.385Z,1180.00
2023-04-16T08:34:45.652Z,1076.00
2023-04-16T08:35:45.878Z,1164.00
2023-04-16T08:36:46.249Z,1608.00
2023-04-16T08:37:46.548Z,2128.00
2023-04-16T08:38:46.692Z,2976.00
2023-04-16T08:39:47.080Z,3976.00
2023-04-16T08:40:47.279Z,4884.00
2023-04-16T08:41:47.644Z,4996.00
2023-04-16T08:42:47.875Z,5060.00
2023-04-16T08:43:48.082Z,5552.00
2023-04-16T08:44:49.252Z,6204.00
2023-04-16T08:45:48.739Z,6196.00
2023-04-16T08:46:49.116Z,5296.00
2023-04-16T08:47:49.421Z,4752.00
2023-04-16T08:48:49.633Z,4188.00
2023-04-16T08:49:49.905Z,3308.00
2023-04-16T08:50:51.195Z,3136.00
2023-04-16T08:51:50.384Z,2956.00
2023-04-16T08:52:50.588Z,2764.00
2023-04-16T08:53:50.812Z,2400.00
2023-04-16T08:55:00.829Z,2288.00
2023-04-16T08:55:51.340Z,2372.00
2023-04-16T08:56:51.662Z,2536.00
2023-04-16T08:57:51.981Z,2560.00
2023-04-16T08:58:52.321Z,2460.00
2023-04-16T08:59:52.664Z,2284.00
2023-04-16T09:00:53.030Z,2276.00
2023-04-16T09:01:53.365Z,2116.00
2023-04-16T09:02:53.787Z,2020.00
2023-04-16T09:03:54.107Z,2000.00
2023-04-16T09:04:54.270Z,2012.00
2023-04-16T09:05:54.576Z,2200.00
2023-04-16T09:06:54.708Z,2388.00
2023-04-16T09:07:55.045Z,2656.00
2023-04-16T09:08:55.405Z,2476.00
2023-04-16T09:09:55.597Z,2156.00
2023-04-16T09:10:55.932Z,2004.00
2023-04-16T09:11:56.302Z,2040.00
2023-04-16T09:12:56.553Z,2040.00
2023-04-16T09:13:56.779Z,1932.00
2023-04-16T09:14:56.989Z,1852.00
2023-04-16T09:15:57.411Z,1840.00
2023-04-16T09:16:57.625Z,1952.00
2023-04-16T09:17:57.893Z,1916.00
2023-04-16T09:18:58.094Z,1700.00
2023-04-16T09:19:58.424Z,1684.00
2023-04-16T09:20:58.821Z,1908.00
2023-04-16T09:21:59.001Z,2020.00
2023-04-16T09:22:59.310Z,2244.00
2023-04-16T09:23:59.663Z,2300.00
2023-04-16T09:24:59.878Z,2036.00
2023-04-16T09:26:00.230Z,1952.00
2023-04-16T09:27:00.547Z,1888.00
2023-04-16T09:28:00.861Z,1984.00
2023-04-16T09:29:01.202Z,2016.00
2023-04-16T09:30:01.563Z,2084.00
2023-04-16T09:31:01.856Z,2096.00
2023-04-16T09:32:02.071Z,2152.00
2023-04-16T09:33:02.375Z,2336.00
2023-04-16T09:34:02.718Z,2440.00
2023-04-16T09:35:02.952Z,2600.00
2023-04-16T09:36:03.330Z,2820.00
2023-04-16T09:37:03.641Z,2968.00
2023-04-16T09:38:04.022Z,3052.00
2023-04-16T09:39:04.221Z,3168.00
2023-04-16T09:40:04.557Z,3472.00
2023-04-16T09:41:04.928Z,3964.00
2023-04-16T09:42:05.126Z,4360.00
2023-04-16T09:43:05.489Z,4556.00
2023-04-16T09:44:05.747Z,4652.00
2023-04-16T09:45:06.402Z,4444.00
2023-04-16T09:46:08.231Z,4520.00
2023-04-16T09:47:06.680Z,4260.00
2023-04-16T09:48:07.020Z,3500.00
2023-04-16T09:49:07.336Z,3112.00
2023-04-16T09:50:07.386Z,3060.00
2023-04-16T09:51:07.719Z,3088.00
2023-04-16T09:52:08.085Z,3568.00
2023-04-16T09:53:08.278Z,4372.00
2023-04-16T09:54:08.636Z,5084.00
2023-04-16T09:55:08.868Z,5148.00
2023-04-16T09:56:09.184Z,5420.00
2023-04-16T09:57:09.523Z,5288.00
2023-04-16T09:58:09.777Z,5136.00
2023-04-16T09:59:10.187Z,4484.00
2023-04-16T10:00:10.333Z,4012.00
2023-04-16T10:01:10.718Z,3776.00
2023-04-16T10:02:15.226Z,3800.00
2023-04-16T10:03:12.322Z,3916.00
2023-04-16T10:04:11.604Z,4180.00
2023-04-16T10:05:11.795Z,4180.00
2023-04-16T10:06:12.138Z,3656.00
2023-04-16T10:07:12.477Z,3340.00
2023-04-16T10:08:12.845Z,3308.00
2023-04-16T10:09:13.136Z,3144.00
2023-04-16T10:10:13.316Z,3068.00
2023-04-16T10:11:13.561Z,2956.00
2023-04-16T10:12:13.839Z,2704.00
2023-04-16T10:13:14.140Z,2628.00
2023-04-16T10:14:14.468Z,2600.00
2023-04-16T10:15:14.800Z,2316.00
2023-04-16T10:16:15.155Z,2072.00
2023-04-16T10:17:15.475Z,1920.00
2023-04-16T10:18:15.812Z,1772.00
2023-04-16T10:19:16.136Z,1760.00
2023-04-16T10:20:17.319Z,1768.00
2023-04-16T10:21:16.768Z,1720.00
2023-04-16T10:22:17.090Z,1748.00
2023-04-16T10:23:17.460Z,1808.00
2023-04-16T10:24:17.773Z,2068.00
2023-04-16T10:25:18.000Z,2140.00
2023-04-16T10:26:18.354Z,2376.00
2023-04-16T10:27:18.573Z,2584.00
2023-04-16T10:28:18.939Z,2880.00
2023-04-16T10:29:19.142Z,3356.00
2023-04-16T10:30:19.529Z,3672.00
2023-04-16T10:31:19.843Z,3320.00
2023-04-16T10:32:20.064Z,2828.00
2023-04-16T10:33:20.258Z,2780.00
2023-04-16T10:34:20.624Z,2880.00
2023-04-16T10:35:20.928Z,2844.00
2023-04-16T10:36:21.105Z,2672.00
2023-04-16T10:37:21.324Z,2696.00
2023-04-16T10:38:21.684Z,2956.00
2023-04-16T10:39:21.898Z,3560.00
2023-04-16T10:40:22.242Z,4232.00
2023-04-16T10:41:22.487Z,4204.00
2023-04-16T10:42:22.790Z,4508.00
2023-04-16T10:43:23.141Z,4488.00
2023-04-16T10:44:23.339Z,4408.00
2023-04-16T10:45:23.714Z,4292.00
2023-04-16T10:46:28.010Z,4036.00
2023-04-16T10:47:24.211Z,3756.00
2023-04-16T10:48:24.405Z,3520.00
2023-04-16T10:49:24.743Z,3252.00
2023-04-16T10:50:25.079Z,3324.00
2023-04-16T10:51:25.409Z,3180.00
2023-04-16T10:52:25.744Z,3308.00
2023-04-16T10:53:26.204Z,3052.00
2023-04-16T10:54:26.390Z,2888.00
2023-04-16T10:55:26.602Z,2960.00
2023-04-16T10:56:26.961Z,2808.00
2023-04-16T10:57:27.186Z,2816.00
2023-04-16T10:58:27.503Z,3140.00
2023-04-16T10:59:27.878Z,3636.00
2023-04-16T11:00:28.088Z,4156.00
2023-04-16T11:01:28.455Z,4732.00
2023-04-16T11:02:28.992Z,5388.00
2023-04-16T11:03:29.069Z,5532.00
2023-04-16T11:04:29.394Z,5184.00
2023-04-16T11:05:29.570Z,4896.00
2023-04-16T11:06:29.870Z,4504.00
2023-04-16T11:07:30.203Z,4228.00
2023-04-16T11:08:30.582Z,4044.00
2023-04-16T11:09:30.810Z,4220.00
2023-04-16T11:10:31.049Z,4348.00
2023-04-16T11:11:31.268Z,4472.00
2023-04-16T11:12:31.638Z,4312.00
2023-04-16T11:13:31.886Z,4372.00
2023-04-16T11:14:32.130Z,4548.00
2023-04-16T11:15:32.339Z,4196.00
2023-04-16T11:16:32.689Z,3940.00
2023-04-16T11:17:33.077Z,4228.00
2023-04-16T11:18:33.260Z,4452.00
2023-04-16T11:19:33.639Z,4496.00
2023-04-16T11:20:33.852Z,4560.00
2023-04-16T11:21:34.090Z,4456.00
2023-04-16T11:22:34.330Z,4216.00
2023-04-16T11:23:34.595Z,3708.00
2023-04-16T11:24:34.808Z,3332.00
2023-04-16T11:25:35.017Z,3452.00
2023-04-16T11:26:35.392Z,3648.00
2023-04-16T11:27:35.580Z,3632.00
2023-04-16T11:28:35.934Z,3332.00
2023-04-16T11:29:36.167Z,3156.00
2023-04-16T11:30:36.437Z,3400.00
2023-04-16T11:31:36.682Z,3936.00
2023-04-16T11:32:37.003Z,4476.00
2023-04-16T11:33:37.307Z,4812.00
2023-04-16T11:34:37.678Z,4904.00
2023-04-16T11:35:37.933Z,4988.00
2023-04-16T11:36:38.145Z,5056.00
2023-04-16T11:37:38.503Z,4744.00
2023-04-16T11:38:38.831Z,4052.00
2023-04-16T11:39:39.134Z,3704.00
2023-04-16T11:40:39.314Z,3448.00
2023-04-16T11:41:39.534Z,3244.00
2023-04-16T11:42:39.951Z,3284.00
2023-04-16T11:43:40.165Z,3676.00
2023-04-16T11:44:40.541Z,4136.00
2023-04-16T11:45:40.734Z,4544.00
2023-04-16T11:46:41.197Z,4844.00
2023-04-16T11:47:41.376Z,5028.00
2023-04-16T11:48:41.673Z,5136.00
2023-04-16T11:49:42.030Z,5168.00
2023-04-16T11:50:42.250Z,5148.00
2023-04-16T11:51:42.608Z,5392.00
2023-04-16T11:52:42.815Z,5804.00
2023-04-16T11:53:43.141Z,5800.00
2023-04-16T11:54:43.515Z,5600.00
2023-04-16T11:55:43.750Z,5812.00
2023-04-16T11:56:44.079Z,5680.00
2023-04-16T11:57:44.460Z,4964.00
2023-04-16T11:58:44.717Z,4368.00
2023-04-16T12:00:02.011Z,3600.00
2023-04-16T12:00:46.248Z,3200.00
2023-04-16T12:01:45.565Z,3088.00
2023-04-16T12:02:45.936Z,3176.00
2023-04-16T12:03:46.354Z,3508.00
2023-04-16T12:04:46.432Z,3596.00
2023-04-16T12:05:46.661Z,3844.00
2023-04-16T12:06:46.900Z,4084.00
2023-04-16T12:07:47.216Z,4228.00
2023-04-16T12:08:47.568Z,4252.00
2023-04-16T12:09:47.822Z,4120.00
2023-04-16T12:10:48.066Z,3876.00
2023-04-16T12:11:48.264Z,3616.00
2023-04-16T12:12:48.613Z,4088.00
2023-04-16T12:13:48.960Z,4016.00
2023-04-16T12:14:49.249Z,3576.00
2023-04-16T12:15:49.461Z,3232.00
2023-04-16T12:16:49.709Z,2932.00
2023-04-16T12:17:50.042Z,2768.00
2023-04-16T12:18:50.245Z,2696.00
2023-04-16T12:19:50.564Z,2864.00
2023-04-16T12:20:50.906Z,3220.00
2023-04-16T12:21:51.191Z,3500.00
2023-04-16T12:22:51.350Z,3800.00
2023-04-16T12:23:51.680Z,3996.00
2023-04-16T12:24:52.041Z,4344.00
2023-04-16T12:25:52.278Z,4552.00
2023-04-16T12:26:52.505Z,5036.00
2023-04-16T12:27:54.074Z,5420.00
2023-04-16T12:28:53.112Z,5588.00
2023-04-16T12:29:53.470Z,5564.00
2023-04-16T12:30:53.765Z,5308.00
2023-04-16T12:31:53.961Z,4792.00
2023-04-16T12:32:55.507Z,4192.00
2023-04-16T12:33:54.406Z,3676.00
2023-04-16T12:34:54.756Z,3220.00
2023-04-16T12:35:54.986Z,2924.00
2023-04-16T12:36:55.333Z,2764.00
2023-04-16T12:37:55.743Z,2528.00
2023-04-16T12:38:56.055Z,2444.00
2023-04-16T12:39:56.259Z,2468.00
2023-04-16T12:40:56.991Z,2624.00
2023-04-16T12:41:56.907Z,2560.00